Wetterdaten: Woche 11.09.17 - 17.09.17 (KW37)
Datum Zeit Temp. A. Pool Temp. Feuchte A. Luftdruck Regen Wind Richtung Sonnenschein ET UV Solar Taupunkt Windchill Windben Empfang
11.09.2017 00:00 13,2 C 18,5 C 92 % 1006,6 hPa 0,0 l/m 4,0 km/h (1 Bft) SW 0,00 h 0,000 mm 0,0 UV-I 0 W/m 11,9 C 13,2 C 6,5 km/h (2 Bft) 99,12 %
11.09.2017 01:00 12,8 C 18,3 C 92 % 1006,3 hPa 0,0 l/m 2,8 km/h (1 Bft) S-SW 0,00 h 0,000 mm 0,0 UV-I 0 W/m 11,6 C 12,8 C 6,4 km/h (2 Bft) 97,59 %
11.09.2017 02:00 12,5 C 18,3 C 92 % 1005,8 hPa 0,0 l/m 1,2 km/h (1 Bft) S-SO 0,00 h 0,000 mm 0,0 UV-I 0 W/m 11,2 C 12,5 C 3,2 km/h (1 Bft) 99,12 %
11.09.2017 03:00 12,2 C 18,3 C 93 % 1005,1 hPa 0,0 l/m 0,0 km/h (0 Bft) N 0,00 h 0,000 mm 0,0 UV-I 0 W/m 11,1 C 12,2 C 1,1 km/h (0 Bft) 98,03 %
11.09.2017 04:00 11,9 C 18,3 C 93 % 1004,3 hPa 0,0 l/m 0,0 km/h (0 Bft) N 0,00 h 0,000 mm 0,0 UV-I 0 W/m 10,8 C 11,9 C 0,1 km/h (0 Bft) 97,16 %
11.09.2017 05:00 11,2 C 18,3 C 93 % 1004,1 hPa 0,0 l/m 0,1 km/h (0 Bft) N-NO 0,00 h 0,000 mm 0,0 UV-I 0 W/m 10,2 C 11,2 C 0,3 km/h (0 Bft) 97,68 %
11.09.2017 06:00 11,1 C 18,3 C 95 % 1004,3 hPa 0,0 l/m 0,5 km/h (0 Bft) O-SO 0,07 h 0,000 mm 0,0 UV-I 12 W/m 10,3 C 11,1 C 1,4 km/h (1 Bft) 98,52 %
11.09.2017 07:00 10,8 C 18,3 C 96 % 1004,3 hPa 0,0 l/m 0,8 km/h (0 Bft) W-SW 0,00 h 0,000 mm 0,0 UV-I 39 W/m 10,2 C 10,8 C 2,0 km/h (1 Bft) 99,37 %
11.09.2017 08:00 11,7 C 18,3 C 96 % 1004,2 hPa 0,0 l/m 0,2 km/h (0 Bft) S 0,00 h 0,025 mm 0,5 UV-I 108 W/m 11,1 C 11,7 C 0,9 km/h (0 Bft) 96,06 %
11.09.2017 09:00 12,9 C 18,3 C 94 % 1004,0 hPa 0,0 l/m 2,3 km/h (1 Bft) W-SW 0,27 h 0,051 mm 0,8 UV-I 232 W/m 11,9 C 12,9 C 4,6 km/h (1 Bft) 98,73 %
11.09.2017 10:00 14,2 C 18,3 C 88 % 1004,3 hPa 0,0 l/m 5,5 km/h (1 Bft) W-SW 0,13 h 0,127 mm 1,4 UV-I 290 W/m 12,1 C 14,1 C 9,2 km/h (2 Bft) 98,48 %
11.09.2017 11:00 15,0 C 18,3 C 83 % 1004,1 hPa 0,0 l/m 5,3 km/h (1 Bft) W-SW 0,00 h 0,153 mm 1,7 UV-I 289 W/m 12,0 C 14,9 C 8,7 km/h (2 Bft) 99,26 %
11.09.2017 12:00 15,3 C 18,3 C 81 % 1003,6 hPa 0,0 l/m 4,7 km/h (1 Bft) W 0,00 h 0,152 mm 1,2 UV-I 201 W/m 12,0 C 15,2 C 7,5 km/h (2 Bft) 96,61 %
11.09.2017 13:00 15,8 C 18,3 C 79 % 1003,4 hPa 0,0 l/m 4,3 km/h (1 Bft) W-SW 0,00 h 0,127 mm 1,6 UV-I 272 W/m 12,2 C 15,7 C 7,6 km/h (2 Bft) 98,05 %
11.09.2017 14:00 16,3 C 18,3 C 78 % 1003,2 hPa 0,0 l/m 2,8 km/h (1 Bft) SW 0,00 h 0,152 mm 1,2 UV-I 209 W/m 12,5 C 16,3 C 5,3 km/h (1 Bft) 97,88 %
11.09.2017 15:00 16,5 C 18,3 C 78 % 1003,0 hPa 0,0 l/m 3,2 km/h (1 Bft) S-SW 0,00 h 0,127 mm 0,9 UV-I 148 W/m 12,6 C 16,5 C 6,1 km/h (2 Bft) 99,58 %
11.09.2017 16:00 16,3 C 18,3 C 76 % 1003,3 hPa 0,0 l/m 3,3 km/h (1 Bft) W-SW 0,00 h 0,102 mm 0,5 UV-I 96 W/m 12,1 C 16,3 C 5,6 km/h (1 Bft) 97,36 %
11.09.2017 17:00 16,3 C 18,3 C 76 % 1003,3 hPa 0,0 l/m 3,2 km/h (1 Bft) W-SW 0,00 h 0,076 mm 0,0 UV-I 90 W/m 12,1 C 16,3 C 5,4 km/h (1 Bft) 97,39 %
11.09.2017 18:00 15,9 C 18,3 C 82 % 1003,2 hPa 0,0 l/m 2,1 km/h (1 Bft) W-SW 0,00 h 0,051 mm 0,0 UV-I 28 W/m 12,7 C 15,9 C 4,7 km/h (1 Bft) 98,19 %
11.09.2017 19:00 15,3 C 18,3 C 83 % 1003,8 hPa 0,0 l/m 0,6 km/h (0 Bft) S 0,07 h 0,025 mm 0,0 UV-I 9 W/m 12,5 C 15,3 C 2,6 km/h (1 Bft) 99,38 %
11.09.2017 20:00 14,9 C 18,3 C 83 % 1004,8 hPa 0,0 l/m 2,4 km/h (1 Bft) S-SO 0,00 h 0,000 mm 0,0 UV-I 0 W/m 12,1 C 14,9 C 5,7 km/h (1 Bft) 97,80 %
11.09.2017 21:00 14,4 C 18,3 C 87 % 1005,3 hPa 1,0 l/m 4,1 km/h (1 Bft) S 0,00 h 0,000 mm 0,0 UV-I 0 W/m 12,3 C 14,2 C 7,6 km/h (2 Bft) 97,00 %
11.09.2017 22:00 13,7 C 18,3 C 91 % 1005,8 hPa 0,4 l/m 6,8 km/h (2 Bft) SW 0,00 h 0,000 mm 0,0 UV-I 0 W/m 12,2 C 13,1 C 12,7 km/h (3 Bft) 97,88 %
11.09.2017 23:00 13,7 C 18,3 C 86 % 1006,4 hPa 0,0 l/m 11,4 km/h (2 Bft) W-SW 0,00 h 0,000 mm 0,0 UV-I 0 W/m 11,4 C 11,0 C 18,9 km/h (3 Bft) 98,25 %
12.09.2017 00:00 13,5 C 18,3 C 86 % 1006,9 hPa 0,2 l/m 5,1 km/h (1 Bft) W-SW 0,00 h 0,025 mm 0,0 UV-I 0 W/m 11,2 C 13,0 C 8,9 km/h (2 Bft) 94,96 %
12.09.2017 01:00 13,0 C 18,2 C 89 % 1007,1 hPa 0,0 l/m 3,2 km/h (1 Bft) SW 0,00 h 0,000 mm 0,0 UV-I 0 W/m 11,2 C 13,0 C 5,2 km/h (1 Bft) 98,32 %
12.09.2017 02:00 12,7 C 17,8 C 89 % 1006,9 hPa 0,0 l/m 3,9 km/h (1 Bft) S-SW 0,00 h 0,000 mm 0,0 UV-I 0 W/m 11,0 C 12,7 C 7,2 km/h (2 Bft) 98,98 %
12.09.2017 03:00 12,7 C 17,8 C 87 % 1006,8 hPa 0,0 l/m 6,4 km/h (2 Bft) SW 0,00 h 0,000 mm 0,0 UV-I 0 W/m 10,6 C 12,6 C 10,1 km/h (2 Bft) 97,88 %
12.09.2017 04:00 12,3 C 17,8 C 86 % 1006,8 hPa 0,0 l/m 8,1 km/h (2 Bft) SW 0,00 h 0,000 mm 0,0 UV-I 0 W/m 10,0 C 11,2 C 12,5 km/h (3 Bft) 95,23 %
12.09.2017 05:00 12,4 C 17,8 C 84 % 1006,8 hPa 0,0 l/m 8,6 km/h (2 Bft) SW 0,00 h 0,000 mm 0,0 UV-I 0 W/m 9,8 C 11,1 C 13,5 km/h (3 Bft) 98,83 %
12.09.2017 06:00 12,2 C 17,8 C 85 % 1006,8 hPa 0,0 l/m 6,4 km/h (2 Bft) SW 0,00 h 0,026 mm 0,0 UV-I 8 W/m 9,8 C 12,0 C 9,7 km/h (2 Bft) 98,31 %
12.09.2017 07:00 12,2 C 17,8 C 85 % 1006,8 hPa 0,0 l/m 5,3 km/h (1 Bft) S-SW 0,00 h 0,025 mm 0,0 UV-I 38 W/m 9,7 C 12,2 C 8,2 km/h (2 Bft) 99,26 %
12.09.2017 08:00 12,9 C 17,8 C 84 % 1006,9 hPa 0,0 l/m 3,1 km/h (1 Bft) SW 0,00 h 0,026 mm 0,0 UV-I 97 W/m 10,2 C 12,9 C 5,3 km/h (1 Bft) 96,30 %
12.09.2017 09:00 13,4 C 17,8 C 83 % 1007,4 hPa 0,0 l/m 4,8 km/h (1 Bft) SW 0,00 h 0,050 mm 0,6 UV-I 117 W/m 10,5 C 13,3 C 7,9 km/h (2 Bft) 98,94 %
12.09.2017 10:00 13,8 C 17,8 C 79 % 1008,0 hPa 0,0 l/m 7,3 km/h (2 Bft) SW 0,00 h 0,077 mm 0,7 UV-I 132 W/m 10,2 C 13,2 C 12,0 km/h (2 Bft) 98,78 %
12.09.2017 11:00 13,5 C 17,8 C 81 % 1009,0 hPa 2,0 l/m 6,0 km/h (2 Bft) W-SW 0,00 h 0,076 mm 0,6 UV-I 101 W/m 10,2 C 13,2 C 10,5 km/h (2 Bft) 98,59 %
12.09.2017 12:00 13,0 C 17,7 C 91 % 1009,5 hPa 0,2 l/m 5,6 km/h (1 Bft) SW 0,00 h 0,076 mm 1,6 UV-I 267 W/m 11,5 C 12,6 C 9,7 km/h (2 Bft) 95,75 %
12.09.2017 13:00 14,0 C 17,8 C 83 % 1010,0 hPa 0,2 l/m 15,4 km/h (3 Bft) SW 0,10 h 0,127 mm 1,5 UV-I 249 W/m 11,1 C 9,9 C 24,2 km/h (4 Bft) 98,77 %
12.09.2017 14:00 14,0 C 17,8 C 80 % 1010,4 hPa 0,0 l/m 16,7 km/h (3 Bft) W-SW 0,20 h 0,152 mm 1,6 UV-I 295 W/m 10,6 C 9,5 C 26,5 km/h (4 Bft) 98,20 %
12.09.2017 15:00 12,8 C 17,8 C 82 % 1010,8 hPa 0,0 l/m 17,4 km/h (3 Bft) W-SW 0,00 h 0,178 mm 0,5 UV-I 105 W/m 9,8 C 7,8 C 26,8 km/h (4 Bft) 98,98 %
12.09.2017 16:00 12,1 C 17,8 C 87 % 1011,1 hPa 0,0 l/m 12,8 km/h (3 Bft) SW 0,00 h 0,076 mm 0,5 UV-I 113 W/m 10,0 C 8,6 C 20,4 km/h (4 Bft) 95,94 %
12.09.2017 17:00 12,4 C 17,4 C 84 % 1011,1 hPa 0,0 l/m 9,8 km/h (2 Bft) SW 0,07 h 0,077 mm 0,0 UV-I 104 W/m 9,8 C 10,3 C 15,4 km/h (3 Bft) 98,72 %
12.09.2017 18:00 12,6 C 17,2 C 84 % 1011,2 hPa 0,0 l/m 9,3 km/h (2 Bft) SW 0,00 h 0,076 mm 0,0 UV-I 48 W/m 10,0 C 10,8 C 15,0 km/h (3 Bft) 98,67 %
12.09.2017 19:00 12,2 C 17,2 C 86 % 1011,6 hPa 0,0 l/m 9,4 km/h (2 Bft) SW 0,23 h 0,051 mm 0,0 UV-I 16 W/m 9,8 C 10,4 C 14,7 km/h (3 Bft) 98,11 %
12.09.2017 20:00 11,7 C 17,2 C 85 % 1012,8 hPa 0,0 l/m 7,6 km/h (2 Bft) SW 0,00 h 0,025 mm 0,0 UV-I 0 W/m 9,3 C 10,7 C 12,4 km/h (3 Bft) 96,92 %
12.09.2017 21:00 11,9 C 17,2 C 83 % 1013,6 hPa 0,2 l/m 14,0 km/h (3 Bft) W-SW 0,00 h 0,025 mm 0,0 UV-I 0 W/m 9,0 C 7,9 C 21,0 km/h (4 Bft) 98,74 %
12.09.2017 22:00 12,1 C 17,2 C 81 % 1014,4 hPa 0,0 l/m 14,6 km/h (3 Bft) SW 0,00 h 0,026 mm 0,0 UV-I 0 W/m 9,0 C 7,9 C 23,0 km/h (4 Bft) 99,11 %
12.09.2017 23:00 12,0 C 17,2 C 81 % 1015,0 hPa 0,0 l/m 14,5 km/h (3 Bft) SW 0,00 h 0,025 mm 0,0 UV-I 0 W/m 8,9 C 7,9 C 21,9 km/h (4 Bft) 97,67 %
13.09.2017 00:00 11,9 C 17,2 C 81 % 1015,2 hPa 0,0 l/m 14,5 km/h (3 Bft) SW 0,00 h 0,000 mm 0,0 UV-I 0 W/m 8,7 C 7,7 C 22,0 km/h (4 Bft) 97,26 %
13.09.2017 01:00 12,2 C 17,2 C 80 % 1015,3 hPa 0,0 l/m 14,8 km/h (3 Bft) SW 0,00 h 0,025 mm 0,0 UV-I 0 W/m 8,7 C 7,9 C 22,8 km/h (4 Bft) 98,33 %
13.09.2017 02:00 12,2 C 17,2 C 79 % 1015,5 hPa 0,0 l/m 9,6 km/h (2 Bft) W-SW 0,00 h 0,026 mm 0,0 UV-I 0 W/m 8,7 C 10,3 C 15,2 km/h (3 Bft) 99,46 %
13.09.2017 03:00 11,9 C 17,2 C 80 % 1015,5 hPa 0,0 l/m 10,0 km/h (2 Bft) SW 0,00 h 0,025 mm 0,0 UV-I 0 W/m 8,6 C 9,9 C 15,1 km/h (3 Bft) 97,36 %
13.09.2017 04:00 12,1 C 16,8 C 79 % 1015,3 hPa 0,0 l/m 8,1 km/h (2 Bft) SW 0,00 h 0,026 mm 0,0 UV-I 0 W/m 8,5 C 11,0 C 12,6 km/h (3 Bft) 97,52 %
13.09.2017 05:00 11,9 C 16,7 C 78 % 1014,8 hPa 0,0 l/m 6,1 km/h (2 Bft) SW 0,00 h 0,025 mm 0,0 UV-I 0 W/m 8,2 C 11,5 C 9,4 km/h (2 Bft) 98,13 %
13.09.2017 06:00 10,7 C 16,7 C 80 % 1014,5 hPa 0,0 l/m 4,6 km/h (1 Bft) S-SW 0,20 h 0,025 mm 0,0 UV-I 15 W/m 7,5 C 10,7 C 7,3 km/h (2 Bft) 99,42 %
13.09.2017 07:00 10,8 C 16,7 C 79 % 1014,1 hPa 0,0 l/m 4,1 km/h (1 Bft) S 1,00 h 0,026 mm 0,0 UV-I 115 W/m 7,3 C 10,8 C 7,6 km/h (2 Bft) 95,92 %
13.09.2017 08:00 13,3 C 16,7 C 72 % 1013,8 hPa 0,0 l/m 4,8 km/h (1 Bft) S-SW 1,00 h 0,076 mm 0,6 UV-I 278 W/m 8,3 C 13,3 C 8,7 km/h (2 Bft) 99,02 %
13.09.2017 09:00 15,4 C 16,7 C 62 % 1013,4 hPa 0,0 l/m 5,2 km/h (1 Bft) SW 1,00 h 0,152 mm 1,3 UV-I 435 W/m 8,2 C 15,1 C 9,4 km/h (2 Bft) 98,17 %
13.09.2017 10:00 16,5 C 16,7 C 59 % 1013,0 hPa 0,0 l/m 6,4 km/h (2 Bft) W-SW 0,90 h 0,254 mm 2,1 UV-I 497 W/m 8,5 C 16,2 C 10,7 km/h (2 Bft) 99,21 %
13.09.2017 11:00 17,3 C 16,7 C 53 % 1012,1 hPa 0,0 l/m 5,7 km/h (1 Bft) O-SO 0,77 h 0,305 mm 2,4 UV-I 440 W/m 7,7 C 17,0 C 10,5 km/h (2 Bft) 96,45 %
13.09.2017 12:00 17,4 C 16,7 C 56 % 1011,2 hPa 0,0 l/m 8,4 km/h (2 Bft) O-NO 0,07 h 0,280 mm 1,9 UV-I 303 W/m 8,6 C 16,4 C 14,2 km/h (3 Bft) 97,96 %
13.09.2017 13:00 17,7 C 16,7 C 59 % 1011,0 hPa 0,0 l/m 6,9 km/h (2 Bft) NO 0,18 h 0,228 mm 2,1 UV-I 316 W/m 9,6 C 17,1 C 11,3 km/h (2 Bft) 98,19 %
13.09.2017 14:00 17,9 C 16,8 C 65 % 1010,8 hPa 0,0 l/m 5,3 km/h (1 Bft) NO 0,00 h 0,229 mm 1,6 UV-I 243 W/m 11,2 C 17,7 C 8,1 km/h (2 Bft) 99,63 %
13.09.2017 15:00 17,8 C 17,2 C 65 % 1010,5 hPa 0,0 l/m 5,8 km/h (2 Bft) O 0,00 h 0,152 mm 1,0 UV-I 183 W/m 11,2 C 17,5 C 8,7 km/h (2 Bft) 98,17 %
13.09.2017 16:00 17,6 C 17,2 C 68 % 1010,7 hPa 0,0 l/m 3,7 km/h (1 Bft) O-SO 0,00 h 0,127 mm 0,5 UV-I 84 W/m 11,7 C 17,6 C 6,1 km/h (2 Bft) 97,74 %
13.09.2017 17:00 16,9 C 17,2 C 78 % 1010,8 hPa 0,0 l/m 2,4 km/h (1 Bft) SW 0,00 h 0,076 mm 0,0 UV-I 62 W/m 13,1 C 16,9 C 5,1 km/h (1 Bft) 97,01 %
13.09.2017 18:00 16,2 C 17,2 C 85 % 1010,6 hPa 0,0 l/m 0,3 km/h (0 Bft) S-SO 0,00 h 0,051 mm 0,0 UV-I 39 W/m 13,6 C 16,2 C 1,1 km/h (1 Bft) 99,19 %
13.09.2017 19:00 15,9 C 17,2 C 83 % 1009,9 hPa 0,0 l/m 3,8 km/h (1 Bft) S-SW 0,07 h 0,026 mm 0,0 UV-I 9 W/m 12,9 C 15,8 C 7,0 km/h (2 Bft) 98,19 %
13.09.2017 20:00 17,2 C 17,2 C 78 % 1009,5 hPa 0,0 l/m 3,8 km/h (1 Bft) S 0,00 h 0,025 mm 0,0 UV-I 0 W/m 13,3 C 17,1 C 7,3 km/h (2 Bft) 98,39 %
13.09.2017 21:00 17,1 C 17,2 C 81 % 1009,1 hPa 0,0 l/m 2,2 km/h (1 Bft) S 0,00 h 0,025 mm 0,0 UV-I 0 W/m 13,8 C 17,0 C 4,4 km/h (1 Bft) 96,28 %
13.09.2017 22:00 16,0 C 17,2 C 84 % 1008,9 hPa 0,0 l/m 3,6 km/h (1 Bft) S 0,00 h 0,000 mm 0,0 UV-I 0 W/m 13,3 C 16,0 C 6,7 km/h (2 Bft) 99,33 %
13.09.2017 23:00 15,8 C 17,2 C 81 % 1008,7 hPa 0,0 l/m 4,8 km/h (1 Bft) S-SO 0,00 h 0,000 mm 0,0 UV-I 0 W/m 12,6 C 15,8 C 8,2 km/h (2 Bft) 97,65 %
14.09.2017 00:00 14,1 C 16,7 C 87 % 1008,4 hPa 0,0 l/m 2,7 km/h (1 Bft) SW 0,00 h 0,000 mm 0,0 UV-I 0 W/m 11,9 C 14,1 C 4,8 km/h (1 Bft) 97,84 %
14.09.2017 01:00 12,5 C 16,7 C 92 % 1007,9 hPa 0,0 l/m 2,7 km/h (1 Bft) SO 0,00 h 0,000 mm 0,0 UV-I 0 W/m 11,2 C 12,4 C 5,4 km/h (1 Bft) 96,71 %
14.09.2017 02:00 11,8 C 16,7 C 92 % 1007,2 hPa 0,0 l/m 2,1 km/h (1 Bft) NO 0,00 h 0,000 mm 0,0 UV-I 0 W/m 10,5 C 11,8 C 4,1 km/h (1 Bft) 99,26 %
14.09.2017 03:00 11,8 C 16,7 C 94 % 1006,5 hPa 0,0 l/m 2,0 km/h (1 Bft) NO 0,00 h 0,000 mm 0,0 UV-I 0 W/m 10,8 C 11,8 C 3,8 km/h (1 Bft) 97,58 %
14.09.2017 04:00 11,1 C 16,7 C 93 % 1006,0 hPa 0,0 l/m 1,3 km/h (1 Bft) SO 0,00 h 0,000 mm 0,0 UV-I 0 W/m 10,0 C 11,1 C 2,5 km/h (1 Bft) 97,37 %
14.09.2017 05:00 10,5 C 16,7 C 94 % 1005,4 hPa 0,0 l/m 1,6 km/h (1 Bft) SO 0,00 h 0,000 mm 0,0 UV-I 0 W/m 9,5 C 10,5 C 2,8 km/h (1 Bft) 97,90 %
14.09.2017 06:00 10,0 C 16,7 C 94 % 1005,3 hPa 0,0 l/m 0,1 km/h (0 Bft) S-SO 0,17 h 0,000 mm 0,0 UV-I 15 W/m 9,1 C 10,0 C 0,6 km/h (0 Bft) 99,39 %
14.09.2017 07:00 10,4 C 16,7 C 96 % 1005,6 hPa 0,0 l/m 1,1 km/h (0 Bft) SW 1,00 h 0,000 mm 0,0 UV-I 104 W/m 9,7 C 10,4 C 2,6 km/h (1 Bft) 96,95 %
14.09.2017 08:00 13,4 C 16,7 C 93 % 1005,7 hPa 0,0 l/m 3,8 km/h (1 Bft) SW 1,00 h 0,051 mm 0,6 UV-I 265 W/m 12,3 C 13,4 C 6,1 km/h (2 Bft) 97,11 %
14.09.2017 09:00 16,6 C 16,7 C 81 % 1005,4 hPa 0,0 l/m 3,7 km/h (1 Bft) S-SO 1,00 h 0,127 mm 1,3 UV-I 429 W/m 13,3 C 16,6 C 7,2 km/h (2 Bft) 99,48 %
14.09.2017 10:00 19,4 C 16,7 C 70 % 1004,7 hPa 0,0 l/m 4,5 km/h (1 Bft) S-SO 1,00 h 0,254 mm 2,5 UV-I 564 W/m 13,8 C 19,3 C 8,9 km/h (2 Bft) 98,35 %
14.09.2017 11:00 21,4 C 16,7 C 62 % 1004,2 hPa 0,0 l/m 1,9 km/h (1 Bft) NO 1,00 h 0,330 mm 3,6 UV-I 661 W/m 13,7 C 21,4 C 4,5 km/h (1 Bft) 96,90 %
14.09.2017 12:00 22,4 C 16,7 C 59 % 1003,8 hPa 0,0 l/m 4,3 km/h (1 Bft) W-SW 1,00 h 0,406 mm 4,2 UV-I 708 W/m 13,9 C 22,3 C 8,6 km/h (2 Bft) 97,19 %
14.09.2017 13:00 19,7 C 16,7 C 65 % 1004,9 hPa 0,0 l/m 12,6 km/h (3 Bft) W-SW 0,45 h 0,458 mm 2,9 UV-I 426 W/m 12,8 C 17,5 C 23,6 km/h (4 Bft) 98,42 %
14.09.2017 14:00 15,6 C 16,7 C 65 % 1008,1 hPa 0,0 l/m 17,6 km/h (3 Bft) W-SW 0,00 h 0,330 mm 0,9 UV-I 61 W/m 9,1 C 11,3 C 28,8 km/h (5 Bft) 98,99 %
14.09.2017 15:00 13,4 C 16,7 C 70 % 1011,4 hPa 0,0 l/m 21,5 km/h (4 Bft) W-SW 0,00 h 0,101 mm 0,0 UV-I 44 W/m 7,9 C 7,3 C 32,1 km/h (5 Bft) 97,62 %
14.09.2017 16:00 11,3 C 16,7 C 80 % 1012,4 hPa 0,0 l/m 17,5 km/h (3 Bft) W-SW 0,00 h 0,102 mm 0,0 UV-I 59 W/m 8,0 C 6,0 C 24,3 km/h (4 Bft) 98,07 %
14.09.2017 17:00 10,9 C 16,7 C 87 % 1012,3 hPa 0,2 l/m 17,1 km/h (3 Bft) SW 0,00 h 0,076 mm 0,0 UV-I 33 W/m 8,7 C 5,5 C 24,7 km/h (4 Bft) 98,77 %
14.09.2017 18:00 11,1 C 16,7 C 82 % 1012,9 hPa 0,0 l/m 20,9 km/h (4 Bft) W-SW 0,00 h 0,051 mm 0,0 UV-I 16 W/m 8,2 C 4,5 C 29,6 km/h (5 Bft) 99,07 %
14.09.2017 19:00 10,5 C 16,7 C 83 % 1013,2 hPa 0,2 l/m 16,4 km/h (3 Bft) SW 0,00 h 0,051 mm 0,0 UV-I 4 W/m 7,7 C 5,4 C 24,8 km/h (4 Bft) 96,71 %
14.09.2017 20:00 10,4 C 16,7 C 83 % 1013,7 hPa 0,4 l/m 18,7 km/h (3 Bft) SW 0,00 h 0,025 mm 0,0 UV-I 0 W/m 7,6 C 4,3 C 27,1 km/h (4 Bft) 98,33 %
14.09.2017 21:00 10,5 C 16,7 C 82 % 1013,8 hPa 0,0 l/m 13,9 km/h (3 Bft) S-SW 0,00 h 0,026 mm 0,0 UV-I 0 W/m 7,5 C 6,3 C 21,0 km/h (4 Bft) 99,09 %
14.09.2017 22:00 10,6 C 16,3 C 80 % 1014,2 hPa 0,0 l/m 11,7 km/h (2 Bft) SW 0,00 h 0,025 mm 0,0 UV-I 0 W/m 7,3 C 7,4 C 18,7 km/h (3 Bft) 97,55 %
14.09.2017 23:00 11,1 C 16,1 C 75 % 1014,5 hPa 0,0 l/m 16,6 km/h (3 Bft) W-SW 0,00 h 0,025 mm 0,0 UV-I 0 W/m 6,9 C 5,9 C 26,4 km/h (4 Bft) 98,22 %
15.09.2017 00:00 11,0 C 16,1 C 73 % 1014,6 hPa 0,0 l/m 19,9 km/h (4 Bft) SW 0,00 h 0,000 mm 0,0 UV-I 0 W/m 6,3 C 4,7 C 31,9 km/h (5 Bft) 95,06 %
15.09.2017 01:00 11,1 C 16,1 C 71 % 1014,7 hPa 0,0 l/m 23,7 km/h (4 Bft) W-SW 0,00 h 0,051 mm 0,0 UV-I 0 W/m 6,0 C 3,7 C 37,5 km/h (5 Bft) 99,09 %
15.09.2017 02:00 10,7 C 16,1 C 71 % 1015,1 hPa 0,0 l/m 17,7 km/h (3 Bft) W-SW 0,00 h 0,076 mm 0,0 UV-I 0 W/m 5,7 C 5,0 C 27,0 km/h (4 Bft) 97,34 %
15.09.2017 03:00 10,5 C 16,1 C 71 % 1015,0 hPa 0,0 l/m 18,6 km/h (3 Bft) W-SW 0,00 h 0,051 mm 0,0 UV-I 0 W/m 5,5 C 4,5 C 28,0 km/h (4 Bft) 97,98 %
15.09.2017 04:00 10,7 C 15,6 C 70 % 1015,5 hPa 0,0 l/m 14,0 km/h (3 Bft) SW 0,00 h 0,051 mm 0,0 UV-I 0 W/m 5,5 C 6,4 C 21,3 km/h (4 Bft) 97,91 %
15.09.2017 05:00 10,3 C 15,6 C 72 % 1015,6 hPa 0,0 l/m 12,4 km/h (3 Bft) SW 0,00 h 0,050 mm 0,0 UV-I 0 W/m 5,5 C 6,8 C 18,7 km/h (3 Bft) 99,47 %
15.09.2017 06:00 10,1 C 15,6 C 73 % 1015,5 hPa 0,0 l/m 10,5 km/h (2 Bft) SW 0,07 h 0,051 mm 0,0 UV-I 10 W/m 5,5 C 7,5 C 15,9 km/h (3 Bft) 97,23 %
15.09.2017 07:00 10,1 C 15,6 C 74 % 1015,8 hPa 0,0 l/m 6,7 km/h (2 Bft) SW 0,27 h 0,026 mm 0,0 UV-I 81 W/m 5,7 C 9,8 C 10,3 km/h (2 Bft) 98,15 %
15.09.2017 08:00 11,6 C 15,6 C 70 % 1015,9 hPa 0,0 l/m 6,0 km/h (2 Bft) SW 1,00 h 0,050 mm 0,6 UV-I 278 W/m 6,2 C 11,4 C 9,8 km/h (2 Bft) 97,88 %
15.09.2017 09:00 12,9 C 15,6 C 66 % 1016,1 hPa 0,0 l/m 7,3 km/h (2 Bft) SW 0,60 h 0,153 mm 1,2 UV-I 327 W/m 6,6 C 12,1 C 11,4 km/h (2 Bft) 99,29 %
15.09.2017 10:00 14,3 C 15,6 C 61 % 1016,0 hPa 0,0 l/m 5,4 km/h (1 Bft) W 1,00 h 0,203 mm 2,3 UV-I 594 W/m 7,0 C 13,9 C 10,7 km/h (2 Bft) 96,49 %
15.09.2017 11:00 14,9 C 15,6 C 59 % 1015,2 hPa 0,0 l/m 3,4 km/h (1 Bft) NW 1,00 h 0,330 mm 3,3 UV-I 702 W/m 7,0 C 14,8 C 6,5 km/h (2 Bft) 96,74 %
15.09.2017 12:00 15,9 C 15,9 C 56 % 1014,4 hPa 0,0 l/m 4,8 km/h (1 Bft) NO 1,00 h 0,381 mm 3,9 UV-I 734 W/m 7,2 C 15,7 C 8,7 km/h (2 Bft) 96,27 %
15.09.2017 13:00 16,7 C 16,1 C 54 % 1013,3 hPa 0,0 l/m 9,6 km/h (2 Bft) NO 0,90 h 0,407 mm 3,6 UV-I 646 W/m 7,3 C 15,2 C 15,9 km/h (3 Bft) 96,74 %
15.09.2017 14:00 17,0 C 16,1 C 55 % 1012,4 hPa 0,0 l/m 12,0 km/h (2 Bft) NO 0,93 h 0,406 mm 3,1 UV-I 651 W/m 7,7 C 14,6 C 19,6 km/h (3 Bft) 99,35 %
15.09.2017 15:00 17,3 C 16,1 C 52 % 1012,0 hPa 0,0 l/m 9,2 km/h (2 Bft) NO 0,93 h 0,406 mm 2,3 UV-I 547 W/m 7,4 C 16,0 C 14,9 km/h (3 Bft) 98,41 %
15.09.2017 16:00 17,1 C 16,1 C 56 % 1011,3 hPa 0,0 l/m 7,8 km/h (2 Bft) NO 0,67 h 0,356 mm 1,2 UV-I 328 W/m 8,1 C 16,3 C 14,3 km/h (3 Bft) 99,30 %
15.09.2017 17:00 16,1 C 16,1 C 61 % 1011,1 hPa 0,0 l/m 4,9 km/h (1 Bft) N-NO 0,23 h 0,229 mm 0,5 UV-I 159 W/m 8,5 C 15,9 C 8,5 km/h (2 Bft) 98,37 %
15.09.2017 18:00 14,9 C 16,1 C 66 % 1011,4 hPa 0,0 l/m 2,1 km/h (1 Bft) N-NO 0,13 h 0,101 mm 0,0 UV-I 44 W/m 8,5 C 14,9 C 4,1 km/h (1 Bft) 99,01 %
15.09.2017 19:00 13,1 C 16,1 C 78 % 1011,2 hPa 0,0 l/m 1,6 km/h (1 Bft) N-NO 0,10 h 0,026 mm 0,0 UV-I 8 W/m 9,2 C 13,1 C 2,7 km/h (1 Bft) 96,35 %
15.09.2017 20:00 12,4 C 16,1 C 80 % 1011,8 hPa 0,0 l/m 2,1 km/h (1 Bft) SW 0,00 h 0,000 mm 0,0 UV-I 0 W/m 9,1 C 12,4 C 3,6 km/h (1 Bft) 99,01 %
15.09.2017 21:00 12,3 C 16,1 C 82 % 1011,7 hPa 0,0 l/m 1,1 km/h (1 Bft) SW 0,00 h 0,000 mm 0,0 UV-I 0 W/m 9,2 C 12,3 C 2,5 km/h (1 Bft) 98,85 %
15.09.2017 22:00 12,0 C 16,1 C 84 % 1011,5 hPa 0,0 l/m 1,4 km/h (1 Bft) SW 0,00 h 0,000 mm 0,0 UV-I 0 W/m 9,3 C 12,0 C 3,0 km/h (1 Bft) 96,89 %
15.09.2017 23:00 11,4 C 16,1 C 87 % 1011,3 hPa 0,0 l/m 1,6 km/h (1 Bft) SW 0,00 h 0,000 mm 0,0 UV-I 0 W/m 9,3 C 11,4 C 3,0 km/h (1 Bft) 97,38 %
16.09.2017 00:00 11,3 C 16,1 C 88 % 1011,2 hPa 0,0 l/m 1,6 km/h (1 Bft) SW 0,00 h 0,000 mm 0,0 UV-I 0 W/m 9,3 C 11,3 C 2,8 km/h (1 Bft) 98,36 %
16.09.2017 01:00 11,2 C 16,1 C 90 % 1010,8 hPa 0,0 l/m 1,2 km/h (1 Bft) SW 0,00 h 0,000 mm 0,0 UV-I 0 W/m 9,5 C 11,2 C 2,1 km/h (1 Bft) 99,02 %
16.09.2017 02:00 10,8 C 16,1 C 92 % 1010,1 hPa 0,0 l/m 0,3 km/h (0 Bft) SW 0,00 h 0,000 mm 0,0 UV-I 0 W/m 9,6 C 10,8 C 0,7 km/h (0 Bft) 96,29 %
16.09.2017 03:00 10,8 C 16,1 C 93 % 1009,9 hPa 0,2 l/m 0,8 km/h (0 Bft) SW 0,00 h 0,000 mm 0,0 UV-I 0 W/m 9,8 C 10,8 C 1,9 km/h (1 Bft) 98,39 %
16.09.2017 04:00 10,9 C 16,1 C 93 % 1009,8 hPa 1,2 l/m 0,1 km/h (0 Bft) SW 0,00 h 0,000 mm 0,0 UV-I 0 W/m 9,8 C 10,9 C 0,3 km/h (0 Bft) 98,74 %
16.09.2017 05:00 10,8 C 16,1 C 94 % 1009,6 hPa 1,0 l/m 0,2 km/h (0 Bft) SW 0,00 h 0,000 mm 0,0 UV-I 0 W/m 9,9 C 10,8 C 0,7 km/h (0 Bft) 97,50 %
16.09.2017 06:00 10,6 C 16,1 C 95 % 1009,3 hPa 0,2 l/m 0,8 km/h (0 Bft) SW 0,00 h 0,000 mm 0,0 UV-I 5 W/m 9,9 C 10,6 C 2,3 km/h (1 Bft) 97,53 %
16.09.2017 07:00 10,5 C 16,1 C 95 % 1009,3 hPa 0,0 l/m 2,4 km/h (1 Bft) NO 0,00 h 0,000 mm 0,0 UV-I 19 W/m 9,8 C 10,5 C 4,4 km/h (1 Bft) 99,10 %
16.09.2017 08:00 10,6 C 15,9 C 96 % 1009,2 hPa 0,0 l/m 1,2 km/h (1 Bft) NO 0,00 h 0,000 mm 0,0 UV-I 43 W/m 10,0 C 10,6 C 2,6 km/h (1 Bft) 98,58 %
16.09.2017 09:00 11,0 C 15,6 C 95 % 1009,5 hPa 0,0 l/m 0,5 km/h (0 Bft) W-SW 0,00 h 0,025 mm 0,5 UV-I 91 W/m 10,2 C 11,0 C 1,7 km/h (1 Bft) 96,36 %
16.09.2017 10:00 11,5 C 15,6 C 93 % 1010,0 hPa 0,0 l/m 0,5 km/h (0 Bft) NW 0,00 h 0,051 mm 0,7 UV-I 113 W/m 10,4 C 11,5 C 2,3 km/h (1 Bft) 98,26 %
16.09.2017 11:00 11,5 C 15,6 C 93 % 1009,9 hPa 0,0 l/m 1,5 km/h (1 Bft) W 0,00 h 0,051 mm 0,5 UV-I 82 W/m 10,3 C 11,5 C 3,3 km/h (1 Bft) 98,53 %
16.09.2017 12:00 11,5 C 15,6 C 93 % 1010,1 hPa 0,0 l/m 5,3 km/h (1 Bft) W 0,00 h 0,051 mm 0,6 UV-I 88 W/m 10,3 C 11,3 C 9,7 km/h (2 Bft) 98,85 %
16.09.2017 13:00 11,3 C 15,6 C 93 % 1010,5 hPa 0,0 l/m 5,1 km/h (1 Bft) W-SW 0,00 h 0,051 mm 0,7 UV-I 108 W/m 10,2 C 11,2 C 8,8 km/h (2 Bft) 97,40 %
16.09.2017 14:00 12,0 C 15,6 C 91 % 1010,7 hPa 0,0 l/m 6,6 km/h (2 Bft) W-SW 0,00 h 0,050 mm 1,2 UV-I 206 W/m 10,5 C 11,5 C 11,8 km/h (2 Bft) 97,79 %
16.09.2017 15:00 11,8 C 15,6 C 90 % 1010,9 hPa 0,0 l/m 9,2 km/h (2 Bft) W-SW 0,00 h 0,102 mm 0,4 UV-I 80 W/m 10,3 C 10,1 C 15,4 km/h (3 Bft) 98,88 %
16.09.2017 16:00 11,8 C 15,6 C 89 % 1011,2 hPa 0,0 l/m 9,4 km/h (2 Bft) W-SW 0,00 h 0,051 mm 0,5 UV-I 71 W/m 10,0 C 9,9 C 15,4 km/h (3 Bft) 98,97 %
16.09.2017 17:00 11,8 C 15,6 C 89 % 1011,5 hPa 0,0 l/m 5,5 km/h (1 Bft) SW 0,00 h 0,051 mm 0,0 UV-I 31 W/m 10,0 C 11,7 C 8,9 km/h (2 Bft) 96,36 %
16.09.2017 18:00 11,6 C 15,6 C 91 % 1011,8 hPa 0,0 l/m 6,5 km/h (2 Bft) SW 0,00 h 0,025 mm 0,0 UV-I 11 W/m 10,1 C 11,1 C 10,9 km/h (2 Bft) 98,15 %
16.09.2017 19:00 11,3 C 15,6 C 92 % 1012,4 hPa 0,0 l/m 6,7 km/h (2 Bft) W-SW 0,00 h 0,025 mm 0,0 UV-I 4 W/m 10,0 C 10,9 C 10,8 km/h (2 Bft) 98,67 %
16.09.2017 20:00 10,9 C 15,6 C 92 % 1012,8 hPa 0,0 l/m 4,8 km/h (1 Bft) W-SW 0,00 h 0,000 mm 0,0 UV-I 0 W/m 9,7 C 10,9 C 7,4 km/h (2 Bft) 97,92 %
16.09.2017 21:00 10,9 C 15,6 C 93 % 1012,9 hPa 0,0 l/m 4,0 km/h (1 Bft) SW 0,00 h 0,000 mm 0,0 UV-I 0 W/m 9,8 C 10,9 C 6,1 km/h (2 Bft) 96,41 %
16.09.2017 22:00 10,7 C 15,6 C 93 % 1013,1 hPa 0,0 l/m 2,9 km/h (1 Bft) SW 0,00 h 0,000 mm 0,0 UV-I 0 W/m 9,7 C 10,7 C 4,7 km/h (1 Bft) 98,25 %
16.09.2017 23:00 10,6 C 15,6 C 93 % 1013,1 hPa 0,0 l/m 2,6 km/h (1 Bft) SW 0,00 h 0,000 mm 0,0 UV-I 0 W/m 9,6 C 10,6 C 4,4 km/h (1 Bft) 98,68 %
17.09.2017 00:00 10,5 C 15,6 C 93 % 1012,7 hPa 0,0 l/m 0,9 km/h (0 Bft) SW 0,00 h 0,000 mm 0,0 UV-I 0 W/m 9,4 C 10,5 C 2,0 km/h (1 Bft) 96,65 %
17.09.2017 01:00 10,3 C 15,6 C 93 % 1012,3 hPa 0,0 l/m 1,6 km/h (1 Bft) S-SW 0,00 h 0,000 mm 0,0 UV-I 0 W/m 9,3 C 10,3 C 3,7 km/h (1 Bft) 98,18 %
17.09.2017 02:00 10,2 C 15,6 C 93 % 1012,2 hPa 0,0 l/m 2,0 km/h (1 Bft) S-SW 0,00 h 0,000 mm 0,0 UV-I 0 W/m 9,1 C 10,2 C 3,9 km/h (1 Bft) 98,38 %
17.09.2017 03:00 10,2 C 15,6 C 94 % 1012,3 hPa 0,0 l/m 1,9 km/h (1 Bft) SW 0,00 h 0,000 mm 0,0 UV-I 0 W/m 9,3 C 10,2 C 3,5 km/h (1 Bft) 98,34 %
17.09.2017 04:00 10,2 C 15,6 C 94 % 1012,4 hPa 0,0 l/m 1,6 km/h (1 Bft) SW 0,00 h 0,000 mm 0,0 UV-I 0 W/m 9,3 C 10,2 C 3,3 km/h (1 Bft) 97,68 %
17.09.2017 05:00 10,2 C 15,3 C 94 % 1012,2 hPa 0,0 l/m 0,2 km/h (0 Bft) SW 0,00 h 0,000 mm 0,0 UV-I 0 W/m 9,3 C 10,2 C 0,8 km/h (0 Bft) 98,86 %
17.09.2017 06:00 10,3 C 15,0 C 95 % 1012,1 hPa 0,0 l/m 1,4 km/h (1 Bft) SW 0,00 h 0,000 mm 0,0 UV-I 4 W/m 9,4 C 10,3 C 2,5 km/h (1 Bft) 98,80 %
17.09.2017 07:00 10,1 C 15,0 C 95 % 1012,4 hPa 0,4 l/m 4,7 km/h (1 Bft) SW 0,00 h 0,000 mm 0,0 UV-I 14 W/m 9,3 C 10,1 C 7,2 km/h (2 Bft) 96,40 %
17.09.2017 08:00 9,9 C 15,0 C 95 % 1012,5 hPa 2,6 l/m 2,6 km/h (1 Bft) S-SW 0,00 h 0,000 mm 0,0 UV-I 23 W/m 9,2 C 9,9 C 4,6 km/h (1 Bft) 98,37 %
17.09.2017 09:00 10,3 C 15,0 C 96 % 1012,7 hPa 0,4 l/m 1,0 km/h (0 Bft) S-SW 0,00 h 0,025 mm 0,5 UV-I 80 W/m 9,7 C 10,3 C 2,5 km/h (1 Bft) 98,73 %
17.09.2017 10:00 10,8 C 15,0 C 95 % 1012,7 hPa 0,2 l/m 5,0 km/h (1 Bft) W-SW 0,00 h 0,051 mm 0,8 UV-I 97 W/m 10,0 C 10,7 C 8,5 km/h (2 Bft) 97,86 %
17.09.2017 11:00 10,6 C 15,0 C 95 % 1012,2 hPa 0,2 l/m 7,6 km/h (2 Bft) W-SW 0,00 h 0,051 mm 0,6 UV-I 104 W/m 9,8 C 9,5 C 12,6 km/h (3 Bft) 96,18 %
17.09.2017 12:00 10,7 C 15,0 C 95 % 1012,1 hPa 0,2 l/m 8,4 km/h (2 Bft) W-SW 0,00 h 0,051 mm 0,7 UV-I 128 W/m 10,0 C 9,3 C 13,9 km/h (3 Bft) 98,15 %
17.09.2017 13:00 11,0 C 15,0 C 94 % 1012,3 hPa 0,0 l/m 8,7 km/h (2 Bft) SW 0,00 h 0,076 mm 0,7 UV-I 133 W/m 10,1 C 9,5 C 14,2 km/h (3 Bft) 98,33 %
17.09.2017 14:00 12,1 C 15,0 C 90 % 1012,2 hPa 0,0 l/m 11,2 km/h (2 Bft) S-SW 0,10 h 0,076 mm 1,4 UV-I 286 W/m 10,5 C 9,3 C 17,4 km/h (3 Bft) 97,29 %
17.09.2017 15:00 12,5 C 15,0 C 87 % 1012,0 hPa 0,0 l/m 12,1 km/h (2 Bft) W-SW 0,27 h 0,153 mm 1,1 UV-I 273 W/m 10,5 C 9,4 C 19,0 km/h (3 Bft) 96,09 %
17.09.2017 16:00 13,1 C 15,0 C 85 % 1011,9 hPa 0,0 l/m 9,8 km/h (2 Bft) SW 0,70 h 0,152 mm 0,8 UV-I 276 W/m 10,6 C 11,2 C 15,9 km/h (3 Bft) 99,00 %
17.09.2017 17:00 11,9 C 15,0 C 84 % 1012,3 hPa 0,0 l/m 10,6 km/h (2 Bft) W-SW 0,00 h 0,152 mm 0,0 UV-I 61 W/m 9,3 C 9,5 C 16,0 km/h (3 Bft) 98,23 %
17.09.2017 18:00 10,9 C 15,0 C 87 % 1012,8 hPa 1,6 l/m 8,3 km/h (2 Bft) SW 0,00 h 0,051 mm 0,0 UV-I 19 W/m 8,9 C 9,7 C 13,9 km/h (3 Bft) 99,39 %
17.09.2017 19:00 9,4 C 15,0 C 91 % 1013,5 hPa 1,0 l/m 5,0 km/h (1 Bft) S-SW 0,00 h 0,026 mm 0,0 UV-I 6 W/m 8,1 C 9,4 C 8,0 km/h (2 Bft) 96,57 %
17.09.2017 20:00 9,1 C 15,0 C 94 % 1013,6 hPa 0,0 l/m 3,4 km/h (1 Bft) S 0,00 h 0,000 mm 0,0 UV-I 0 W/m 8,2 C 9,1 C 6,1 km/h (2 Bft) 99,08 %
17.09.2017 21:00 8,5 C 15,0 C 95 % 1013,9 hPa 0,0 l/m 3,0 km/h (1 Bft) S-SW 0,00 h 0,000 mm 0,0 UV-I 0 W/m 7,6 C 8,5 C 5,3 km/h (1 Bft) 98,33 %
17.09.2017 22:00 8,0 C 15,0 C 95 % 1014,1 hPa 0,0 l/m 2,1 km/h (1 Bft) S 0,00 h 0,000 mm 0,0 UV-I 0 W/m 7,3 C 8,0 C 4,2 km/h (1 Bft) 97,48 %
17.09.2017 23:00 7,0 C 14,4 C 95 % 1014,3 hPa 0,0 l/m 0,9 km/h (0 Bft) S 0,00 h 0,000 mm 0,0 UV-I 0 W/m 6,3 C 7,0 C 1,9 km/h (1 Bft) 98,31 %
Min-Datum _ 17.09.17 17.09.17 13.09.17 11.09.17 - 11.09.17 - - - - - 15.09.17 14.09.17 11.09.17 15.09.17
_ Min-Zeit 23:58 22:56 11:28 15:12 - 02:45 - - - - - 06:12 20:25 02:50 00:02
Minimum _ 6,4 C 14,4 C 49 % 1002,8 hPa - 0,0 km/h (0 Bft) - - - - - 5,3 C 1,8 C 0,0 km/h (0 Bft) 9,52 %
Max-Datum _ 14.09.17 11.09.17 11.09.17 15.09.17 17.09.17 14.09.17 - 13.09.17 14.09.17 14.09.17 14.09.17 14.09.17 14.09.17 15.09.17 11.09.17
_ Max-Zeit 13:04 00:00 08:04 10:08 08:20 15:54 - 13:59 13:00 13:02 13:04 13:06 13:02 00:50 00:20
Maximum _ 23,3 C 18,9 C 97 % 1016,3 hPa 2,6 l/m 34,8 km/h
W-SW (5 Bft)
- 0,05 h 0,458 mm 4,6 UV-I 854 W/m 15,4 C 23,1 C 49,9 km/h
W-SW (6 Bft)
100,00 %
Durchschnitt _ 12,8 C 16,6 C 83 % 1010,3 hPa #14,2 l/m 6,2 km/h (2 Bft) SW #22:50 h #11,810 mm 1,4 UV-I 180 W/m 9,8 C 11,7 C 10,2 km/h (2 Bft) 98,00 %